Восточная Россия

Макрорегион "Дальконтроль" предоставляет диспетчерское обслуживание виртуального воздушного движения сети "VATSIM" в РПИ Хабаровск (UHHH), Якутск (UEEE), Магадан (UHMM) на диспетчерском пункте RU-ERC_FSS с позывным "Дальконтроль" на всех высотах.

Лого Восточная Россия
Руководство

Sergey Balandin

Куратор
Контакты

FSS региона
Обозначение
RU-ERC_FSS
Позывной
Дальконтроль
Частота
135.550
Примечание
Top-down
Инструкторы региона
Denis Makosov * (Senior Student)
Ivan Aksenenko (Instructor)
Maxim Osmolovskiy * (Controller)
Nikolay Yamushev * (Controller)
Sergey Balandin (Senior Instructor)
Включает в себя

РПИ Магадан
РПИ Хабаровск
РПИ Якутск

Диспетчеры региона

Диспетчер Рейтинг Допуски *
Alex Kalchenko Senior Student UHMM_CTR *, UHMM_APP
Denis Makosov Senior Student UHHH_CTR *, UHPP_TWR
Georgii Gamsakhurdiia Controller UHHH_CTR
Igor Melnick Supervisor UHHH_CTR
Ivan Aksenenko Instructor UHHH_CTR
Konstantin Gorbunov Controller UHHH_CTR
Konstantin Gordeev Controller UHMM_CTR
Maxim Osmolovskiy Controller UHHH_CTR
Nikolay Yamushev Controller UHHH_CTR
Sergey Balandin Senior Instructor UEEE_CTR, UHHH_CTR, UHMM_CTR
Tigran Areian Controller UHHH_CTR
Alexander Shkut Senior Student UHSS_R_APP, UHWW_APP
Anton Nikolaev Student 2 UHHH_TWR
Daniel Cherednichenko Student 2 UHSS_R_APP*, UHPP_GND!!!
Dima Zemlansky Student UHHH_GND
Egor Garifulin Student 2 UHHH_R_APP*, UHSS_TWR
Evgenii Semendiaev Student UHHH_TWR*
Igor Zarubin Student UHPP_TWR*
Kirill Babinsev Student 2 UHSS_TWR, UHMM_GND!!!
Matvei Udalov Student UHHH_GND
Maxim Korobko Senior Student UHWW_TWR, UHHH_APP
Maxim Sukhorukov Student 2 UHHH_TWR
Nikita Brynkov Student UHSS_TWR*
Nikita Gonjarov Student 2 UHMA_TWR
Nikita Zikeev Student 2 UHWW_R_APP*
Ravil Kohanovsky Student UHWW_GND
Roman Shelepov Student 2 UHHH_TWR
Roman Vorontsov Student UHHH_GND*
Vadim Kotelenec Senior Student UHHH_APP
Yaroslav Tretelnitskiy Student 2 UHWW_R_APP*

Аэропорты региона

ICAO Город Название Погода
UHMA Анадырь Угольный UHMA 121600Z 00000MPS 9999 FEW021 SCT043 12/12 Q1004 R01/////// NOSIG RMK TDZ R01/00000G01MPS END R01/00000G01MPS MT OBSC QFE749/0999
UHBB Благовещенск Игнатьево UHBB 121600Z 22002MPS 9999 SCT033CB 15/15 Q1002 R36/090060 NOSIG RMK QFE734/0979
UHWW Владивосток Владивосток UHWW 121630Z 01001MPS 9999 NSC 17/17 Q1005 R25L/0///70 NOSIG RMK QFE753
UHKD Комсомольск-на-Амуре Дзёмги
UHKK Комсомольск-на-Амуре Хурба
UERL Ленск Ленск
UHMM Магадан Магадан UHMM 121600Z 08002MPS 0600 0200E R10/0700U FG VV004 12/12 Q1009 RMK QFE742 R28/10002MPS
UERR Мирный Мирный UERR 121600Z 28002MPS 9999 FEW010 BKN028CB 14/13 Q1005 R25/290350 NOSIG RMK QFE723/0964
UELL Нерюнгри Чульман
UHNN Николаевск-на-Амуре Николаевск-на-Амуре
UHOO Охотск Охотск
UHMP Певек Певек
UHPP Петропавловск-Камчатский Елизово UHPP 121600Z 02002MPS 6000 -SHRA SCT010 BKN022CB 13/13 Q1010 R16R/CLRD70 NOSIG RMK QFE754/1006
UHMD Провидения Бухта Провидения
UHKG Советская Гавань Каменный Ручей
UHKM Советская Гавань Май-Гатка
UEST Тикси Тикси
UERP Удачный Полярный UERP 121600Z 04004MPS 9999 -RA BKN018 OVC100 06/05 Q1012 R35/290152 RMK QFE715
UHHH Хабаровск Хабаровск UHHH 121630Z 00000MPS CAVOK 16/15 Q1003 R23R/090060 NOSIG RMK QFE746/0995
UESS Черский Черский
UHSS Южно-Сахалинск Хомутово UHSS 121600Z 11002MPS 9999 NSC 14/13 Q1005 R01/70D NOSIG RMK QFE752/1003
UEEE Якутск Якутск UEEE 121630Z 31002MPS 0400 R23L/1000U FG VV003 14/14 Q1004 R23L/09//60 NOSIG RMK QBB090 QFE744
UHNA Аян Аян
UHNB Богородское Богородское
UHSB Буревестник Буревестник
UHHD Дальнереченск Дальнереченск
UHBE Зея Зея
UHSO Зональное Зональное
UHWK Кавалерово Кавалерово
UHEK Купол Купол
UHSI Курильск Итуруп
UHBI Магдагачи Магдагачи
UHSN Ноглики Ноглики
UHSH Оха Новостройка
UHWP Пластун Пластун
UHBS Свободный Свободный
UHBW Тында Тында
UEMU Усть-Мая Усть-Мая
UHHT Хабаровск Хабаровск МВЛ
UHHY Чумикан Чумикан
UHSK Шахтерск Шахтёрск
UHBP Экимчан Экимчан
UHSM Южно-Курильск Менделеево